sensor_id;sensor_type;location;lat;lon;timestamp;pressure;altitude;pressure_sealevel;temperature;humidity
49102;BME280;34913;47.520;19.186;2023-02-01T00:01:39;99920.59;;;3.18;89.67
49102;BME280;34913;47.520;19.186;2023-02-01T00:04:04;99915.84;;;3.25;89.16
49102;BME280;34913;47.520;19.186;2023-02-01T00:06:30;99913.81;;;3.30;88.66
49102;BME280;34913;47.520;19.186;2023-02-01T00:08:56;99915.69;;;3.28;88.60
49102;BME280;34913;47.520;19.186;2023-02-01T00:11:22;99915.34;;;3.18;89.12
49102;BME280;34913;47.520;19.186;2023-02-01T00:13:48;99921.09;;;3.25;88.82
49102;BME280;34913;47.520;19.186;2023-02-01T00:16:17;99920.09;;;3.27;88.37
49102;BME280;34913;47.520;19.186;2023-02-01T00:18:44;99922.38;;;3.33;87.47
49102;BME280;34913;47.520;19.186;2023-02-01T00:21:11;99916.44;;;3.30;86.99
49102;BME280;34913;47.520;19.186;2023-02-01T00:23:37;99914.75;;;3.29;87.47
49102;BME280;34913;47.520;19.186;2023-02-01T00:26:05;99915.91;;;3.23;87.72
49102;BME280;34913;47.520;19.186;2023-02-01T00:28:31;99914.22;;;3.22;87.95
49102;BME280;34913;47.520;19.186;2023-02-01T00:31:02;99918.81;;;3.19;87.84
49102;BME280;34913;47.520;19.186;2023-02-01T00:33:29;99922.38;;;3.18;87.64
49102;BME280;34913;47.520;19.186;2023-02-01T00:36:00;99923.13;;;3.20;87.45
49102;BME280;34913;47.520;19.186;2023-02-01T00:38:30;99916.72;;;3.25;86.78
49102;BME280;34913;47.520;19.186;2023-02-01T00:41:03;99921.69;;;3.30;86.85
49102;BME280;34913;47.520;19.186;2023-02-01T00:43:30;99919.06;;;3.30;86.27
49102;BME280;34913;47.520;19.186;2023-02-01T00:45:56;99925.69;;;3.37;86.07
49102;BME280;34913;47.520;19.186;2023-02-01T00:48:21;99921.63;;;3.47;85.26
49102;BME280;34913;47.520;19.186;2023-02-01T00:50:46;99919.06;;;3.46;85.40
49102;BME280;34913;47.520;19.186;2023-02-01T00:53:12;99902.66;;;3.42;85.55
49102;BME280;34913;47.520;19.186;2023-02-01T00:55:37;99901.66;;;3.45;85.13
49102;BME280;34913;47.520;19.186;2023-02-01T00:58:03;99899.19;;;3.42;85.81
49102;BME280;34913;47.520;19.186;2023-02-01T01:00:32;99902.75;;;3.41;85.66
49102;BME280;34913;47.520;19.186;2023-02-01T01:02:57;99915.94;;;3.39;86.14
49102;BME280;34913;47.520;19.186;2023-02-01T01:05:23;99905.38;;;3.41;85.42
49102;BME280;34913;47.520;19.186;2023-02-01T01:07:49;99908.84;;;3.41;85.33
49102;BME280;34913;47.520;19.186;2023-02-01T01:10:15;99899.88;;;3.45;84.83
49102;BME280;34913;47.520;19.186;2023-02-01T01:12:40;99896.06;;;3.51;84.56
49102;BME280;34913;47.520;19.186;2023-02-01T01:15:06;99894.81;;;3.58;83.82
49102;BME280;34913;47.520;19.186;2023-02-01T01:17:32;99881.25;;;3.50;83.96
49102;BME280;34913;47.520;19.186;2023-02-01T01:19:57;99877.28;;;3.58;83.52
49102;BME280;34913;47.520;19.186;2023-02-01T01:22:23;99868.38;;;3.61;82.40
49102;BME280;34913;47.520;19.186;2023-02-01T01:24:48;99861.25;;;3.47;82.54
49102;BME280;34913;47.520;19.186;2023-02-01T01:27:14;99870.06;;;3.46;82.55
49102;BME280;34913;47.520;19.186;2023-02-01T01:29:39;99865.66;;;3.47;82.86
49102;BME280;34913;47.520;19.186;2023-02-01T01:32:04;99867.22;;;3.51;83.12
49102;BME280;34913;47.520;19.186;2023-02-01T01:34:30;99861.53;;;3.58;82.59
49102;BME280;34913;47.520;19.186;2023-02-01T01:36:55;99854.47;;;3.75;81.47
49102;BME280;34913;47.520;19.186;2023-02-01T01:39:21;99852.28;;;3.67;82.17
49102;BME280;34913;47.520;19.186;2023-02-01T01:41:46;99844.81;;;3.75;81.87
49102;BME280;34913;47.520;19.186;2023-02-01T01:47:15;99837.03;;;3.74;81.37
49102;BME280;34913;47.520;19.186;2023-02-01T01:49:41;99859.13;;;3.70;82.11
49102;BME280;34913;47.520;19.186;2023-02-01T01:52:08;99853.13;;;3.68;82.22
49102;BME280;34913;47.520;19.186;2023-02-01T01:54:38;99845.16;;;3.69;81.70
49102;BME280;34913;47.520;19.186;2023-02-01T01:57:10;99846.41;;;3.78;80.57
49102;BME280;34913;47.520;19.186;2023-02-01T01:59:38;99840.06;;;3.82;80.07
49102;BME280;34913;47.520;19.186;2023-02-01T02:02:05;99834.22;;;3.77;80.11
49102;BME280;34913;47.520;19.186;2023-02-01T02:04:32;99834.50;;;3.72;80.24
49102;BME280;34913;47.520;19.186;2023-02-01T02:07:08;99836.03;;;3.60;80.70
49102;BME280;34913;47.520;19.186;2023-02-01T02:09:35;99838.75;;;3.59;80.85
49102;BME280;34913;47.520;19.186;2023-02-01T02:12:00;99829.53;;;3.52;81.10
49102;BME280;34913;47.520;19.186;2023-02-01T02:14:26;99829.53;;;3.52;80.86
49102;BME280;34913;47.520;19.186;2023-02-01T02:44:56;99835.81;;;3.49;79.78
49102;BME280;34913;47.520;19.186;2023-02-01T02:48:02;99841.19;;;3.62;79.47
49102;BME280;34913;47.520;19.186;2023-02-01T02:50:36;99827.63;;;3.70;79.02
49102;BME280;34913;47.520;19.186;2023-02-01T02:56:44;99838.81;;;3.73;78.16
49102;BME280;34913;47.520;19.186;2023-02-01T02:59:29;99834.41;;;3.74;77.95
49102;BME280;34913;47.520;19.186;2023-02-01T03:02:15;99838.28;;;3.82;77.55
49102;BME280;34913;47.520;19.186;2023-02-01T03:04:59;99826.09;;;3.81;77.70
49102;BME280;34913;47.520;19.186;2023-02-01T03:13:17;99827.50;;;3.87;77.05
49102;BME280;34913;47.520;19.186;2023-02-01T03:20:53;99829.06;;;3.75;78.03
49102;BME280;34913;47.520;19.186;2023-02-01T03:23:23;99823.91;;;3.74;78.13
49102;BME280;34913;47.520;19.186;2023-02-01T03:25:53;99816.25;;;3.85;77.36
49102;BME280;34913;47.520;19.186;2023-02-01T03:28:22;99832.09;;;3.83;77.51
49102;BME280;34913;47.520;19.186;2023-02-01T03:30:49;99823.38;;;3.83;77.63
49102;BME280;34913;47.520;19.186;2023-02-01T03:33:21;99831.44;;;3.80;77.90
49102;BME280;34913;47.520;19.186;2023-02-01T03:41:35;99819.06;;;3.82;77.75
49102;BME280;34913;47.520;19.186;2023-02-01T03:44:22;99828.97;;;3.77;78.00
49102;BME280;34913;47.520;19.186;2023-02-01T03:49:34;99834.75;;;3.68;78.44
49102;BME280;34913;47.520;19.186;2023-02-01T03:52:01;99831.88;;;3.72;77.98
49102;BME280;34913;47.520;19.186;2023-02-01T03:54:29;99836.28;;;3.72;78.56
49102;BME280;34913;47.520;19.186;2023-02-01T03:56:57;99829.31;;;3.71;78.18
49102;BME280;34913;47.520;19.186;2023-02-01T03:59:24;99833.03;;;3.82;77.61
49102;BME280;34913;47.520;19.186;2023-02-01T04:01:50;99821.81;;;3.64;78.36
49102;BME280;34913;47.520;19.186;2023-02-01T04:04:16;99821.97;;;3.61;78.68
49102;BME280;34913;47.520;19.186;2023-02-01T04:06:50;99819.69;;;3.55;78.61
49102;BME280;34913;47.520;19.186;2023-02-01T04:09:17;99811.91;;;3.54;79.06
49102;BME280;34913;47.520;19.186;2023-02-01T04:11:43;99815.97;;;3.59;78.77
49102;BME280;34913;47.520;19.186;2023-02-01T04:14:08;99821.88;;;3.63;78.78
49102;BME280;34913;47.520;19.186;2023-02-01T04:16:34;99816.81;;;3.60;78.91
49102;BME280;34913;47.520;19.186;2023-02-01T04:19:00;99817.16;;;3.54;78.89
49102;BME280;34913;47.520;19.186;2023-02-01T04:21:26;99815.75;;;3.48;79.28
49102;BME280;34913;47.520;19.186;2023-02-01T04:23:52;99813.81;;;3.36;79.81
49102;BME280;34913;47.520;19.186;2023-02-01T04:26:18;99818.88;;;3.39;79.95
49102;BME280;34913;47.520;19.186;2023-02-01T04:28:45;99824.47;;;3.49;79.69
49102;BME280;34913;47.520;19.186;2023-02-01T04:31:13;99826.69;;;3.41;79.59
49102;BME280;34913;47.520;19.186;2023-02-01T04:33:39;99823.28;;;3.39;79.92
49102;BME280;34913;47.520;19.186;2023-02-01T04:36:04;99833.19;;;3.33;80.29
49102;BME280;34913;47.520;19.186;2023-02-01T04:38:30;99825.16;;;3.21;81.02
49102;BME280;34913;47.520;19.186;2023-02-01T04:40:57;99832.69;;;3.27;80.58
49102;BME280;34913;47.520;19.186;2023-02-01T04:43:23;99831.13;;;3.39;80.08
49102;BME280;34913;47.520;19.186;2023-02-01T04:45:49;99833.63;;;3.42;79.99
49102;BME280;34913;47.520;19.186;2023-02-01T04:48:15;99838.88;;;3.42;79.76
49102;BME280;34913;47.520;19.186;2023-02-01T04:50:41;99833.84;;;3.37;79.85
49102;BME280;34913;47.520;19.186;2023-02-01T04:53:07;99840.63;;;3.41;79.65
49102;BME280;34913;47.520;19.186;2023-02-01T04:55:33;99840.13;;;3.34;79.72
49102;BME280;34913;47.520;19.186;2023-02-01T04:57:58;99843.00;;;3.30;80.04
49102;BME280;34913;47.520;19.186;2023-02-01T05:00:24;99849.19;;;3.29;80.05
49102;BME280;34913;47.520;19.186;2023-02-01T05:02:49;99847.56;;;3.26;80.30
49102;BME280;34913;47.520;19.186;2023-02-01T05:05:15;99852.81;;;3.26;80.46
49102;BME280;34913;47.520;19.186;2023-02-01T05:07:40;99847.16;;;3.34;80.14
49102;BME280;34913;47.520;19.186;2023-02-01T05:10:06;99843.78;;;3.32;79.96
49102;BME280;34913;47.520;19.186;2023-02-01T05:12:32;99847.66;;;3.25;80.33
49102;BME280;34913;47.520;19.186;2023-02-01T05:15:16;99849.09;;;3.30;79.83
49102;BME280;34913;47.520;19.186;2023-02-01T05:17:41;99858.50;;;3.34;79.91
49102;BME280;34913;47.520;19.186;2023-02-01T05:20:08;99844.88;;;3.28;79.95
49102;BME280;34913;47.520;19.186;2023-02-01T05:22:33;99846.72;;;3.26;80.01
49102;BME280;34913;47.520;19.186;2023-02-01T05:24:59;99844.09;;;3.26;80.01
49102;BME280;34913;47.520;19.186;2023-02-01T05:27:24;99839.09;;;3.37;79.33
49102;BME280;34913;47.520;19.186;2023-02-01T05:29:50;99852.81;;;3.42;79.14
49102;BME280;34913;47.520;19.186;2023-02-01T05:32:15;99844.94;;;3.42;78.87
49102;BME280;34913;47.520;19.186;2023-02-01T05:34:40;99849.69;;;3.35;79.19
49102;BME280;34913;47.520;19.186;2023-02-01T05:37:06;99843.25;;;3.25;79.13
49102;BME280;34913;47.520;19.186;2023-02-01T05:39:31;99841.16;;;3.32;78.29
49102;BME280;34913;47.520;19.186;2023-02-01T05:41:57;99834.97;;;3.33;78.15
49102;BME280;34913;47.520;19.186;2023-02-01T05:44:22;99832.84;;;3.40;77.02
49102;BME280;34913;47.520;19.186;2023-02-01T05:46:48;99841.22;;;3.46;76.84
49102;BME280;34913;47.520;19.186;2023-02-01T05:49:13;99836.38;;;3.54;76.69
49102;BME280;34913;47.520;19.186;2023-02-01T05:51:38;99840.19;;;3.64;75.59
49102;BME280;34913;47.520;19.186;2023-02-01T05:54:04;99838.97;;;3.70;75.51
49102;BME280;34913;47.520;19.186;2023-02-01T05:56:29;99834.94;;;3.64;75.86
49102;BME280;34913;47.520;19.186;2023-02-01T05:58:55;99844.75;;;3.61;76.03
49102;BME280;34913;47.520;19.186;2023-02-01T06:01:20;99854.81;;;3.69;76.22
49102;BME280;34913;47.520;19.186;2023-02-01T06:03:46;99854.81;;;3.69;76.30
49102;BME280;34913;47.520;19.186;2023-02-01T06:06:11;99860.59;;;3.59;77.15
49102;BME280;34913;47.520;19.186;2023-02-01T06:08:36;99858.72;;;3.61;77.26
49102;BME280;34913;47.520;19.186;2023-02-01T06:11:05;99860.78;;;3.56;77.80
49102;BME280;34913;47.520;19.186;2023-02-01T06:13:32;99850.94;;;3.44;78.40
49102;BME280;34913;47.520;19.186;2023-02-01T06:15:57;99846.81;;;3.40;79.32
49102;BME280;34913;47.520;19.186;2023-02-01T06:18:26;99861.53;;;3.43;79.44
49102;BME280;34913;47.520;19.186;2023-02-01T06:20:53;99878.88;;;3.45;79.42
49102;BME280;34913;47.520;19.186;2023-02-01T06:23:18;99882.53;;;3.43;79.58
49102;BME280;34913;47.520;19.186;2023-02-01T06:25:44;99880.84;;;3.42;79.61
49102;BME280;34913;47.520;19.186;2023-02-01T06:28:10;99875.06;;;3.51;79.16
49102;BME280;34913;47.520;19.186;2023-02-01T06:30:35;99871.09;;;3.44;79.55
49102;BME280;34913;47.520;19.186;2023-02-01T06:33:01;99866.88;;;3.41;79.80
49102;BME280;34913;47.520;19.186;2023-02-01T06:35:26;99873.22;;;3.53;79.13
49102;BME280;34913;47.520;19.186;2023-02-01T06:37:51;99873.47;;;3.48;79.16
49102;BME280;34913;47.520;19.186;2023-02-01T06:40:17;99869.06;;;3.64;78.16
49102;BME280;34913;47.520;19.186;2023-02-01T06:42:42;99882.63;;;3.57;78.54
49102;BME280;34913;47.520;19.186;2023-02-01T06:45:08;99887.34;;;3.66;77.84
49102;BME280;34913;47.520;19.186;2023-02-01T06:47:34;99887.91;;;3.71;78.09
49102;BME280;34913;47.520;19.186;2023-02-01T06:49:59;99889.38;;;3.77;77.49
49102;BME280;34913;47.520;19.186;2023-02-01T06:52:25;99893.25;;;3.85;77.40
49102;BME280;34913;47.520;19.186;2023-02-01T06:54:50;99889.44;;;3.91;77.18
49102;BME280;34913;47.520;19.186;2023-02-01T06:57:15;99882.75;;;3.85;77.48
49102;BME280;34913;47.520;19.186;2023-02-01T06:59:41;99884.84;;;3.95;77.21
49102;BME280;34913;47.520;19.186;2023-02-01T07:02:10;99881.06;;;3.84;77.79
49102;BME280;34913;47.520;19.186;2023-02-01T07:04:36;99879.44;;;3.98;77.49
49102;BME280;34913;47.520;19.186;2023-02-01T07:07:02;99873.44;;;3.96;77.61
49102;BME280;34913;47.520;19.186;2023-02-01T07:09:27;99875.63;;;4.03;77.10
49102;BME280;34913;47.520;19.186;2023-02-01T07:11:53;99873.25;;;3.99;77.24
49102;BME280;34913;47.520;19.186;2023-02-01T07:14:18;99890.09;;;3.95;77.57
49102;BME280;34913;47.520;19.186;2023-02-01T07:16:43;99885.84;;;4.08;76.84
49102;BME280;34913;47.520;19.186;2023-02-01T07:19:09;99876.75;;;4.13;76.35
49102;BME280;34913;47.520;19.186;2023-02-01T07:21:34;99889.72;;;4.16;76.58
49102;BME280;34913;47.520;19.186;2023-02-01T07:24:00;99885.75;;;4.09;76.97
49102;BME280;34913;47.520;19.186;2023-02-01T07:26:25;99887.09;;;4.16;76.93
49102;BME280;34913;47.520;19.186;2023-02-01T07:28:50;99896.16;;;4.27;76.67
49102;BME280;34913;47.520;19.186;2023-02-01T07:31:18;99897.19;;;4.38;75.91
49102;BME280;34913;47.520;19.186;2023-02-01T07:33:46;99907.97;;;4.34;76.15
49102;BME280;34913;47.520;19.186;2023-02-01T07:36:13;99911.75;;;4.44;75.70
49102;BME280;34913;47.520;19.186;2023-02-01T07:38:39;99911.22;;;4.53;75.50
49102;BME280;34913;47.520;19.186;2023-02-01T07:41:05;99910.75;;;4.61;74.66
49102;BME280;34913;47.520;19.186;2023-02-01T07:43:31;99914.13;;;4.63;74.60
49102;BME280;34913;47.520;19.186;2023-02-01T07:45:58;99914.44;;;4.58;74.62
49102;BME280;34913;47.520;19.186;2023-02-01T07:48:25;99928.22;;;4.62;74.95
49102;BME280;34913;47.520;19.186;2023-02-01T07:51:02;99917.34;;;4.68;74.62
49102;BME280;34913;47.520;19.186;2023-02-01T07:53:29;99920.63;;;4.71;74.62
49102;BME280;34913;47.520;19.186;2023-02-01T07:55:55;99924.13;;;4.86;73.80
49102;BME280;34913;47.520;19.186;2023-02-01T07:58:22;99928.66;;;4.98;73.16
49102;BME280;34913;47.520;19.186;2023-02-01T08:00:47;99936.09;;;5.06;73.16
49102;BME280;34913;47.520;19.186;2023-02-01T08:03:31;99929.50;;;5.13;72.81
49102;BME280;34913;47.520;19.186;2023-02-01T08:05:56;99924.91;;;5.17;72.22
49102;BME280;34913;47.520;19.186;2023-02-01T08:08:23;99920.94;;;5.24;71.61
49102;BME280;34913;47.520;19.186;2023-02-01T08:10:48;99920.75;;;5.27;71.16
49102;BME280;34913;47.520;19.186;2023-02-01T08:13:14;99938.53;;;5.23;71.93
49102;BME280;34913;47.520;19.186;2023-02-01T08:15:39;99934.69;;;5.15;71.80
49102;BME280;34913;47.520;19.186;2023-02-01T08:18:05;99943.69;;;5.11;72.17
49102;BME280;34913;47.520;19.186;2023-02-01T08:20:31;99923.97;;;5.18;71.60
49102;BME280;34913;47.520;19.186;2023-02-01T08:22:56;99934.28;;;5.21;70.65
49102;BME280;34913;47.520;19.186;2023-02-01T08:25:22;99920.84;;;5.25;70.68
49102;BME280;34913;47.520;19.186;2023-02-01T08:27:49;99926.22;;;5.24;70.20
49102;BME280;34913;47.520;19.186;2023-02-01T08:30:15;99921.88;;;5.37;69.52
49102;BME280;34913;47.520;19.186;2023-02-01T08:32:40;99933.69;;;5.44;69.23
49102;BME280;34913;47.520;19.186;2023-02-01T08:35:06;99940.50;;;5.34;69.64
49102;BME280;34913;47.520;19.186;2023-02-01T08:37:33;99937.38;;;5.42;69.81
49102;BME280;34913;47.520;19.186;2023-02-01T08:39:58;99957.69;;;5.40;69.20
49102;BME280;34913;47.520;19.186;2023-02-01T08:42:24;99954.28;;;5.52;68.59
49102;BME280;34913;47.520;19.186;2023-02-01T08:45:08;99951.59;;;5.53;69.18
49102;BME280;34913;47.520;19.186;2023-02-01T08:47:34;99955.13;;;5.52;69.02
49102;BME280;34913;47.520;19.186;2023-02-01T08:50:00;99948.63;;;5.58;69.12
49102;BME280;34913;47.520;19.186;2023-02-01T08:52:25;99944.78;;;5.64;69.38
49102;BME280;34913;47.520;19.186;2023-02-01T08:54:51;99945.16;;;5.72;69.23
49102;BME280;34913;47.520;19.186;2023-02-01T08:57:16;99959.41;;;5.96;67.68
49102;BME280;34913;47.520;19.186;2023-02-01T08:59:42;99954.84;;;6.12;67.24
49102;BME280;34913;47.520;19.186;2023-02-01T09:02:12;99953.22;;;6.24;66.81
49102;BME280;34913;47.520;19.186;2023-02-01T09:04:38;99951.44;;;6.37;66.54
49102;BME280;34913;47.520;19.186;2023-02-01T09:07:04;99965.28;;;6.41;66.37
49102;BME280;34913;47.520;19.186;2023-02-01T09:09:29;99948.34;;;6.58;65.25
49102;BME280;34913;47.520;19.186;2023-02-01T09:11:55;99940.97;;;6.76;65.01
49102;BME280;34913;47.520;19.186;2023-02-01T09:14:20;99950.28;;;6.81;65.01
49102;BME280;34913;47.520;19.186;2023-02-01T09:16:45;99955.78;;;6.91;63.09
49102;BME280;34913;47.520;19.186;2023-02-01T09:19:11;99950.28;;;7.07;64.13
49102;BME280;34913;47.520;19.186;2023-02-01T09:21:36;99936.69;;;7.13;63.31
49102;BME280;34913;47.520;19.186;2023-02-01T09:24:02;99938.56;;;7.23;61.94
49102;BME280;34913;47.520;19.186;2023-02-01T09:26:29;99947.13;;;7.14;62.24
49102;BME280;34913;47.520;19.186;2023-02-01T09:28:54;99949.22;;;7.35;62.97
49102;BME280;34913;47.520;19.186;2023-02-01T09:31:20;99958.38;;;7.54;62.60
49102;BME280;34913;47.520;19.186;2023-02-01T09:33:45;99943.56;;;7.65;62.57
49102;BME280;34913;47.520;19.186;2023-02-01T09:36:11;99942.50;;;7.67;60.35
49102;BME280;34913;47.520;19.186;2023-02-01T09:38:37;99937.91;;;7.45;61.99
49102;BME280;34913;47.520;19.186;2023-02-01T09:41:10;99953.75;;;7.33;62.36
49102;BME280;34913;47.520;19.186;2023-02-01T09:44:08;99922.72;;;7.23;62.07
49102;BME280;34913;47.520;19.186;2023-02-01T09:46:32;99940.66;;;7.18;61.45
49102;BME280;34913;47.520;19.186;2023-02-01T09:49:08;99949.66;;;7.16;60.91
49102;BME280;34913;47.520;19.186;2023-02-01T09:51:43;99943.75;;;6.99;62.33
49102;BME280;34913;47.520;19.186;2023-02-01T09:54:15;99943.84;;;6.85;63.64
49102;BME280;34913;47.520;19.186;2023-02-01T09:57:01;99952.50;;;6.87;63.85
49102;BME280;34913;47.520;19.186;2023-02-01T09:59:46;99951.63;;;6.74;66.30
49102;BME280;34913;47.520;19.186;2023-02-01T10:02:17;99942.41;;;6.54;67.16
49102;BME280;34913;47.520;19.186;2023-02-01T10:04:44;99940.41;;;6.45;67.32
49102;BME280;34913;47.520;19.186;2023-02-01T10:10:01;99917.47;;;6.72;67.40
49102;BME280;34913;47.520;19.186;2023-02-01T10:15:48;99918.00;;;6.90;66.82
49102;BME280;34913;47.520;19.186;2023-02-01T10:26:23;99904.81;;;7.03;64.60
49102;BME280;34913;47.520;19.186;2023-02-01T10:28:51;99886.09;;;7.19;64.32
49102;BME280;34913;47.520;19.186;2023-02-01T10:31:18;99877.44;;;7.17;64.23
49102;BME280;34913;47.520;19.186;2023-02-01T10:33:49;99867.09;;;7.01;64.48
49102;BME280;34913;47.520;19.186;2023-02-01T10:36:19;99864.56;;;6.99;65.17
49102;BME280;34913;47.520;19.186;2023-02-01T10:38:47;99875.06;;;6.88;65.88
49102;BME280;34913;47.520;19.186;2023-02-01T10:41:18;99873.44;;;6.86;66.07
49102;BME280;34913;47.520;19.186;2023-02-01T10:43:48;99872.81;;;6.69;66.75
49102;BME280;34913;47.520;19.186;2023-02-01T10:46:16;99876.19;;;6.84;66.84
49102;BME280;34913;47.520;19.186;2023-02-01T10:48:42;99874.41;;;6.97;66.20
49102;BME280;34913;47.520;19.186;2023-02-01T10:51:21;99874.28;;;7.12;65.92
49102;BME280;34913;47.520;19.186;2023-02-01T10:53:55;99876.31;;;7.45;64.46
49102;BME280;34913;47.520;19.186;2023-02-01T10:56:27;99859.81;;;7.54;64.67
49102;BME280;34913;47.520;19.186;2023-02-01T10:59:00;99861.63;;;7.53;64.14
49102;BME280;34913;47.520;19.186;2023-02-01T11:01:42;99844.13;;;7.40;64.60
49102;BME280;34913;47.520;19.186;2023-02-01T11:04:12;99851.84;;;7.30;65.33
49102;BME280;34913;47.520;19.186;2023-02-01T11:06:48;99847.38;;;7.07;66.15
49102;BME280;34913;47.520;19.186;2023-02-01T11:14:18;99828.28;;;7.40;65.93
49102;BME280;34913;47.520;19.186;2023-02-01T11:16:49;99829.97;;;7.41;65.84
49102;BME280;34913;47.520;19.186;2023-02-01T11:19:18;99826.88;;;7.47;64.96
49102;BME280;34913;47.520;19.186;2023-02-01T11:21:44;99823.69;;;7.54;65.60
49102;BME280;34913;47.520;19.186;2023-02-01T11:24:34;99821.75;;;7.56;65.92
49102;BME280;34913;47.520;19.186;2023-02-01T11:27:14;99815.91;;;7.64;65.75
49102;BME280;34913;47.520;19.186;2023-02-01T11:29:43;99800.19;;;7.63;65.51
49102;BME280;34913;47.520;19.186;2023-02-01T11:32:09;99799.63;;;7.70;65.36
49102;BME280;34913;47.520;19.186;2023-02-01T11:34:46;99802.88;;;7.74;65.44
49102;BME280;34913;47.520;19.186;2023-02-01T11:37:23;99811.75;;;7.73;65.04
49102;BME280;34913;47.520;19.186;2023-02-01T11:39:58;99804.28;;;7.91;64.13
49102;BME280;34913;47.520;19.186;2023-02-01T11:42:25;99805.63;;;7.72;64.94
49102;BME280;34913;47.520;19.186;2023-02-01T11:44:51;99799.03;;;7.67;65.17
49102;BME280;34913;47.520;19.186;2023-02-01T11:47:40;99807.03;;;7.41;69.06
49102;BME280;34913;47.520;19.186;2023-02-01T11:50:16;99805.69;;;7.36;69.14
49102;BME280;34913;47.520;19.186;2023-02-01T12:21:59;99767.13;;;6.22;80.34
49102;BME280;34913;47.520;19.186;2023-02-01T12:27:41;99774.59;;;6.02;82.12
49102;BME280;34913;47.520;19.186;2023-02-01T12:35:42;99792.53;;;5.83;84.07
49102;BME280;34913;47.520;19.186;2023-02-01T12:43:05;99787.41;;;5.54;86.40
49102;BME280;34913;47.520;19.186;2023-02-01T12:45:46;99809.75;;;5.35;88.38
49102;BME280;34913;47.520;19.186;2023-02-01T12:48:40;99809.34;;;5.14;89.97
49102;BME280;34913;47.520;19.186;2023-02-01T12:51:18;99803.63;;;4.93;90.62
49102;BME280;34913;47.520;19.186;2023-02-01T12:53:51;99798.84;;;4.85;90.57
49102;BME280;34913;47.520;19.186;2023-02-01T12:56:53;99780.81;;;4.79;91.86
49102;BME280;34913;47.520;19.186;2023-02-01T12:59:56;99776.50;;;4.78;92.48
49102;BME280;34913;47.520;19.186;2023-02-01T13:03:24;99775.66;;;4.78;92.36
49102;BME280;34913;47.520;19.186;2023-02-01T13:05:36;99774.03;;;4.89;92.24
49102;BME280;34913;47.520;19.186;2023-02-01T13:08:17;99744.94;;;4.78;93.35
49102;BME280;34913;47.520;19.186;2023-02-01T13:10:56;99734.91;;;4.85;93.30
49102;BME280;34913;47.520;19.186;2023-02-01T13:13:31;99729.41;;;5.02;92.11
49102;BME280;34913;47.520;19.186;2023-02-01T13:16:23;99724.50;;;5.10;94.86
49102;BME280;34913;47.520;19.186;2023-02-01T13:19:02;99711.41;;;5.23;95.39
49102;BME280;34913;47.520;19.186;2023-02-01T13:21:34;99703.41;;;5.24;95.77
49102;BME280;34913;47.520;19.186;2023-02-01T13:24:02;99704.63;;;5.46;93.85
49102;BME280;34913;47.520;19.186;2023-02-01T13:26:28;99694.66;;;5.64;93.17
49102;BME280;34913;47.520;19.186;2023-02-01T13:28:58;99701.72;;;5.76;89.60
49102;BME280;34913;47.520;19.186;2023-02-01T13:34:38;99690.00;;;5.67;91.05
49102;BME280;34913;47.520;19.186;2023-02-01T13:42:49;99726.44;;;5.48;91.31
49102;BME280;34913;47.520;19.186;2023-02-01T13:45:19;99723.13;;;5.44;91.41
49102;BME280;34913;47.520;19.186;2023-02-01T13:47:48;99710.28;;;5.40;91.33
49102;BME280;34913;47.520;19.186;2023-02-01T13:50:31;99715.50;;;5.27;90.64
49102;BME280;34913;47.520;19.186;2023-02-01T13:53:22;99725.44;;;5.09;92.65
49102;BME280;34913;47.520;19.186;2023-02-01T13:55:58;99708.44;;;5.15;92.40
49102;BME280;34913;47.520;19.186;2023-02-01T13:58:35;99713.00;;;4.98;93.29
49102;BME280;34913;47.520;19.186;2023-02-01T14:03:53;99718.66;;;5.05;92.20
49102;BME280;34913;47.520;19.186;2023-02-01T14:11:51;99722.88;;;5.22;92.99
49102;BME280;34913;47.520;19.186;2023-02-01T14:19:34;99740.34;;;5.23;94.49
49102;BME280;34913;47.520;19.186;2023-02-01T14:22:32;99771.34;;;5.18;95.05
49102;BME280;34913;47.520;19.186;2023-02-01T14:24:51;99789.50;;;5.22;94.37
49102;BME280;34913;47.520;19.186;2023-02-01T14:27:23;99767.59;;;4.66;94.83
49102;BME280;34913;47.520;19.186;2023-02-01T14:30:06;99754.25;;;4.55;96.15
49102;BME280;34913;47.520;19.186;2023-02-01T14:32:40;99767.78;;;4.49;96.64
49102;BME280;34913;47.520;19.186;2023-02-01T14:35:25;99779.22;;;4.34;96.79
49102;BME280;34913;47.520;19.186;2023-02-01T14:37:53;99778.38;;;4.19;96.64
49102;BME280;34913;47.520;19.186;2023-02-01T14:40:24;99770.22;;;4.24;97.38
49102;BME280;34913;47.520;19.186;2023-02-01T14:42:51;99779.88;;;4.23;96.65
49102;BME280;34913;47.520;19.186;2023-02-01T14:55:41;99770.69;;;3.72;97.58
49102;BME280;34913;47.520;19.186;2023-02-01T14:58:35;99768.59;;;3.77;97.87
49102;BME280;34913;47.520;19.186;2023-02-01T15:01:05;99766.09;;;3.75;97.55
49102;BME280;34913;47.520;19.186;2023-02-01T15:09:25;99778.25;;;4.06;96.75
49102;BME280;34913;47.520;19.186;2023-02-01T15:14:46;99764.63;;;4.00;97.72
49102;BME280;34913;47.520;19.186;2023-02-01T15:19:56;99767.00;;;4.04;98.41
49102;BME280;34913;47.520;19.186;2023-02-01T15:22:22;99771.13;;;4.08;97.83
49102;BME280;34913;47.520;19.186;2023-02-01T15:24:56;99765.78;;;4.10;96.93
49102;BME280;34913;47.520;19.186;2023-02-01T15:27:23;99766.84;;;4.22;96.85
49102;BME280;34913;47.520;19.186;2023-02-01T15:29:49;99763.84;;;4.28;96.91
49102;BME280;34913;47.520;19.186;2023-02-01T15:32:34;99767.47;;;4.25;96.45
49102;BME280;34913;47.520;19.186;2023-02-01T15:35:01;99759.22;;;4.17;97.00
49102;BME280;34913;47.520;19.186;2023-02-01T15:37:28;99758.84;;;4.09;96.38
49102;BME280;34913;47.520;19.186;2023-02-01T15:40:19;99754.44;;;4.24;96.44
49102;BME280;34913;47.520;19.186;2023-02-01T15:42:58;99762.06;;;4.28;97.00
49102;BME280;34913;47.520;19.186;2023-02-01T15:45:29;99760.19;;;4.30;97.65
49102;BME280;34913;47.520;19.186;2023-02-01T15:47:57;99761.59;;;4.36;97.55
49102;BME280;34913;47.520;19.186;2023-02-01T15:50:25;99776.53;;;4.35;98.14
49102;BME280;34913;47.520;19.186;2023-02-01T15:52:53;99770.88;;;4.27;96.51